Etusivu
METAR-TAF:

METAR-TAF

Lentoasemat :

Matagami, Quebec, Kanada

Leveyspiiri: 49-46N, Pituuspiiri: 077-49W, korkeus merenpinnasta: 281 m

Tämänhetkinen sää

Tämä raportti tehtiin 38 minuuttia sitten, kello 17.00 UTC
Tuuli 6 kn idästä/koillisesta, vaihdellen pohjoisen ja idän välillä
Lämpötila 16°C
Kosteus 48%
Ilmanpaine 1003 hPa
Näkyvyys: 14.5 km
Pilvistä 12000 ft:n korkeudessa

METAR: CYNM 031700Z AUTO 06006KT 350V090 9SM OVC120 16/05 A2961 RMK SLP035 DENSITY ALT 1600FT

Aika: 13:38 (17:38 UTC)


TAF: puuttuu

Säähavainnot ja -ennusteet yli 4000 lentoasemalta (METAR- ja TAF-raportit).

Käytössä olevat sääasemat on merkitty karttaan keltaisilla ja punaisilla pisteillä.

Aseta hiiri pisteen päälle nähdäksesi sääaseman nimen.

Klikkaa sitten nähdäksesi säähavainnot ja -ennusteet.

Kartan vaihtaminen: klikkaa mustalla rastilla varustettuja vihreitä pisteitä, niin voit zoomata sisään; viivalla varustettua vihreää pistettä, niin voit zoomata ulos tai vihreitä nuolia, niin pääset viereisille kartoille.


METAR-TAF: